createdAt,value
2023-03-10T00:55:04.396Z,98911.06
2023-03-10T00:56:04.930Z,98909.45
2023-03-10T00:57:06.788Z,98910.05
2023-03-10T00:58:06.305Z,98908.80
2023-03-10T00:59:06.982Z,98908.80
2023-03-10T01:00:07.608Z,98908.58
2023-03-10T01:01:07.586Z,98908.27
2023-03-10T01:02:08.307Z,98908.70
2023-03-10T01:03:09.038Z,98908.59
2023-03-10T01:04:09.144Z,98908.83
2023-03-10T01:05:09.766Z,98908.98
2023-03-10T01:06:09.807Z,98909.47
2023-03-10T01:07:09.890Z,98909.71
2023-03-10T01:08:10.511Z,98910.00
2023-03-10T01:09:11.100Z,98910.75
2023-03-10T01:10:11.242Z,98910.70
2023-03-10T01:11:11.724Z,98910.37
2023-03-10T01:12:12.627Z,98910.06
2023-03-10T01:13:13.216Z,98910.06
2023-03-10T01:14:14.064Z,98910.23
2023-03-10T01:15:14.877Z,98910.14
2023-03-10T01:16:15.627Z,98910.01
2023-03-10T01:17:16.211Z,98909.84
2023-03-10T01:18:17.104Z,98909.37
2023-03-10T01:19:17.928Z,98909.61
2023-03-10T01:20:18.901Z,98908.86
2023-03-10T01:21:18.515Z,98908.60
2023-03-10T01:22:19.084Z,98907.72
2023-03-10T01:23:20.031Z,98907.05
2023-03-10T01:24:21.019Z,98906.27
2023-03-10T01:25:24.507Z,98905.30
2023-03-10T01:26:21.583Z,98903.44
2023-03-10T01:27:21.684Z,98902.77
2023-03-10T01:28:21.704Z,98901.78
2023-03-10T01:29:22.260Z,98901.11
2023-03-10T01:29:31.496Z,98872.06
2023-03-10T01:30:31.180Z,98884.25
2023-03-10T01:31:31.862Z,98884.34
2023-03-10T01:32:32.475Z,98884.52
2023-03-10T01:33:33.148Z,98883.67
2023-03-10T01:34:33.816Z,98883.67
2023-03-10T01:35:34.356Z,98882.92
2023-03-10T01:36:34.890Z,98882.58
2023-03-10T01:37:35.323Z,98881.40
2023-03-10T01:38:36.077Z,98880.39
2023-03-10T01:39:36.660Z,98879.20
2023-03-10T01:40:37.286Z,98878.44
2023-03-10T01:41:37.878Z,98877.02
2023-03-10T01:42:38.557Z,98875.63
2023-03-10T01:43:39.455Z,98874.48
2023-03-10T01:44:39.919Z,98873.64
2023-03-10T01:45:40.568Z,98871.95
2023-03-10T01:46:41.555Z,98870.60
2023-03-10T01:47:42.188Z,98869.92
2023-03-10T01:48:42.758Z,98868.82
2023-03-10T01:49:43.453Z,98867.78
2023-03-10T01:50:44.086Z,98866.77
2023-03-10T01:51:44.779Z,98865.97
2023-03-10T01:52:45.365Z,98865.13
2023-03-10T01:53:45.906Z,98865.37
2023-03-10T01:54:46.512Z,98865.27
2023-03-10T01:55:47.105Z,98864.88
2023-03-10T01:56:47.845Z,98864.36
2023-03-10T01:57:49.762Z,98864.14
2023-03-10T01:58:49.192Z,98863.36
2023-03-10T01:59:49.935Z,98863.31
2023-03-10T02:00:50.527Z,98863.65
2023-03-10T02:01:51.476Z,98863.55
2023-03-10T02:02:52.098Z,98863.63
2023-03-10T02:03:52.802Z,98863.36
2023-03-10T02:04:02.055Z,98868.50
2023-03-10T02:05:02.630Z,98874.99
2023-03-10T02:06:03.620Z,98873.73
2023-03-10T02:07:03.850Z,98873.06
2023-03-10T02:08:04.396Z,98872.34
2023-03-10T02:09:05.071Z,98871.84
2023-03-10T02:10:05.481Z,98872.01
2023-03-10T02:11:06.253Z,98870.92
2023-03-10T02:12:06.975Z,98869.41
2023-03-10T02:13:07.648Z,98868.83
2023-03-10T02:14:08.192Z,98868.66
2023-03-10T02:15:08.354Z,98866.72
2023-03-10T02:16:09.240Z,98866.39
2023-03-10T02:17:09.717Z,98865.67
2023-03-10T02:18:10.485Z,98865.71
2023-03-10T02:19:11.280Z,98864.70
2023-03-10T02:20:11.915Z,98864.16
2023-03-10T02:21:12.565Z,98862.73
2023-03-10T02:22:13.196Z,98861.88
2023-03-10T02:23:13.599Z,98861.45
2023-03-10T02:24:14.530Z,98860.70
2023-03-10T02:25:15.168Z,98860.37
2023-03-10T02:26:15.882Z,98859.86
2023-03-10T02:27:16.502Z,98859.26
2023-03-10T02:28:17.196Z,98858.25
2023-03-10T02:29:18.004Z,98857.06
2023-03-10T02:30:18.567Z,98854.74
2023-03-10T02:31:18.813Z,98855.39
2023-03-10T02:32:19.440Z,98854.33
2023-03-10T02:33:19.999Z,98853.80
2023-03-10T02:34:20.728Z,98852.70
2023-03-10T02:35:21.390Z,98851.89
2023-03-10T02:36:21.817Z,98850.95
2023-03-10T02:37:22.357Z,98849.67
2023-03-10T02:38:23.125Z,98849.24
2023-03-10T02:39:23.851Z,98848.78
2023-03-10T02:39:36.554Z,98852.49
2023-03-10T02:40:37.412Z,98839.55
2023-03-10T02:41:38.021Z,98839.05
2023-03-10T02:42:38.705Z,98838.12
2023-03-10T02:43:39.379Z,98838.03
2023-03-10T02:44:39.988Z,98837.79
2023-03-10T02:45:40.697Z,98837.58
2023-03-10T02:46:41.222Z,98837.24
2023-03-10T02:47:41.706Z,98837.00
2023-03-10T02:48:42.333Z,98836.92
2023-03-10T02:49:42.928Z,98836.64
2023-03-10T02:50:43.514Z,98837.31
2023-03-10T02:51:43.607Z,98837.08
2023-03-10T02:52:44.236Z,98837.41
2023-03-10T02:53:44.875Z,98837.30
2023-03-10T02:54:45.562Z,98837.39
2023-03-10T02:56:14.869Z,98834.16
2023-03-10T02:57:15.379Z,98829.05
2023-03-10T02:58:16.142Z,98828.71
2023-03-10T02:59:16.764Z,98828.71
2023-03-10T03:00:17.296Z,98828.88
2023-03-10T03:01:17.589Z,98828.47
2023-03-10T03:02:17.645Z,98828.80
2023-03-10T03:03:18.158Z,98827.96
2023-03-10T03:04:18.995Z,98827.28
2023-03-10T03:05:19.691Z,98827.36
2023-03-10T03:06:20.392Z,98826.01
2023-03-10T03:07:20.952Z,98825.17
2023-03-10T03:08:21.517Z,98823.64
2023-03-10T03:09:22.068Z,98822.13
2023-03-10T03:10:22.944Z,98820.78
2023-03-10T03:11:23.768Z,98818.77
2023-03-10T03:12:24.567Z,98816.80
2023-03-10T03:13:25.399Z,98814.46
2023-03-10T03:14:26.012Z,98812.73
2023-03-10T03:15:26.301Z,98811.06
2023-03-10T03:16:26.320Z,98808.92
2023-03-10T03:17:26.806Z,98808.17
2023-03-10T03:18:27.580Z,98808.06
2023-03-10T03:19:29.894Z,98807.75
2023-03-10T03:20:29.226Z,98807.34
2023-03-10T03:21:30.154Z,98807.39
2023-03-10T03:22:30.843Z,98806.91
2023-03-10T03:23:31.425Z,98806.95
2023-03-10T03:24:31.410Z,98806.72
2023-03-10T03:25:31.486Z,98807.48
2023-03-10T03:26:32.070Z,98807.47
2023-03-10T03:27:32.622Z,98807.35
2023-03-10T03:28:33.166Z,98807.78
2023-03-10T03:29:33.810Z,98808.52
2023-03-10T03:30:34.788Z,98808.70
2023-03-10T03:30:44.494Z,98824.29
2023-03-10T03:31:44.983Z,98818.06
2023-03-10T03:32:45.460Z,98817.95
2023-03-10T03:33:45.969Z,98817.95
2023-03-10T03:34:46.659Z,98817.70
2023-03-10T03:35:46.773Z,98817.13
2023-03-10T03:36:47.191Z,98816.75
2023-03-10T03:37:48.009Z,98816.58
2023-03-10T03:38:48.639Z,98816.58
2023-03-10T03:39:49.270Z,98816.24
2023-03-10T03:40:49.848Z,98816.58
2023-03-10T03:41:50.259Z,98815.76
2023-03-10T03:42:50.982Z,98815.76
2023-03-10T03:43:51.514Z,98815.18
2023-03-10T03:44:52.183Z,98814.13
2023-03-10T03:45:52.839Z,98813.83
2023-03-10T03:46:53.456Z,98812.77
2023-03-10T03:47:54.028Z,98811.59
2023-03-10T03:48:54.937Z,98810.00
2023-03-10T03:49:54.887Z,98809.66
2023-03-10T03:50:55.499Z,98808.65
2023-03-10T03:51:56.011Z,98807.64
2023-03-10T03:52:56.504Z,98806.28
2023-03-10T03:53:57.017Z,98805.37
2023-03-10T03:54:57.449Z,98804.27
2023-03-10T03:55:57.966Z,98802.82
2023-03-10T03:56:58.736Z,98801.68
2023-03-10T03:57:59.608Z,98800.57
2023-03-10T03:59:00.316Z,98799.63
2023-03-10T04:00:01.115Z,98798.69
2023-03-10T04:01:01.928Z,98798.30
2023-03-10T04:02:02.676Z,98797.45
2023-03-10T04:03:03.325Z,98796.20
2023-03-10T04:04:04.005Z,98795.53
2023-03-10T04:05:04.620Z,98794.30
2023-03-10T04:06:05.381Z,98793.97
2023-03-10T04:06:14.592Z,98785.66
2023-03-10T04:07:15.252Z,98779.74
2023-03-10T04:08:15.917Z,98779.20
2023-03-10T04:09:16.446Z,98778.86
2023-03-10T04:10:16.951Z,98778.69
2023-03-10T04:11:17.647Z,98778.78
2023-03-10T04:12:18.173Z,98778.95
2023-03-10T04:13:18.899Z,98779.02
2023-03-10T04:14:19.893Z,98778.52
2023-03-10T04:15:20.524Z,98778.02
2023-03-10T04:16:21.254Z,98778.19
2023-03-10T04:17:21.777Z,98778.02
2023-03-10T04:18:22.357Z,98778.02
2023-03-10T04:19:23.164Z,98777.17
2023-03-10T04:20:23.700Z,98777.17
2023-03-10T04:21:24.685Z,98776.49
2023-03-10T04:22:25.341Z,98776.25
2023-03-10T04:23:25.800Z,98776.25
2023-03-10T04:24:26.595Z,98776.08
2023-03-10T04:25:27.217Z,98775.41
2023-03-10T04:26:27.884Z,98775.41
2023-03-10T04:27:28.355Z,98775.14
2023-03-10T04:28:29.186Z,98774.98
2023-03-10T04:29:29.975Z,98774.98
2023-03-10T04:30:30.574Z,98774.56
2023-03-10T04:31:31.079Z,98773.14
2023-03-10T04:32:31.695Z,98772.80
2023-03-10T04:33:32.247Z,98771.80
2023-03-10T04:34:33.038Z,98770.95
2023-03-10T04:35:33.738Z,98770.27
2023-03-10T04:36:34.296Z,98769.19
2023-03-10T04:37:34.901Z,98768.59
2023-03-10T04:38:37.359Z,98767.33
2023-03-10T04:39:36.224Z,98766.83
2023-03-10T04:40:36.941Z,98766.31
2023-03-10T04:41:37.078Z,98765.77
2023-03-10T04:41:45.856Z,98766.50
2023-03-10T04:42:46.772Z,98759.48
2023-03-10T04:43:48.083Z,98759.08
2023-03-10T04:44:50.593Z,98758.50
2023-03-10T04:45:48.214Z,98758.59
2023-03-10T04:46:48.950Z,98758.64
2023-03-10T04:47:49.042Z,98759.20
2023-03-10T04:48:49.600Z,98759.33
2023-03-10T04:49:56.254Z,98759.14
2023-03-10T04:50:52.494Z,98758.95
2023-03-10T04:51:51.179Z,98759.09
2023-03-10T04:52:54.778Z,98758.73
2023-03-10T04:53:52.204Z,98758.86
2023-03-10T04:56:00.724Z,98757.21
2023-03-10T04:57:01.652Z,98752.91
2023-03-10T04:58:02.287Z,98752.30
2023-03-10T04:59:02.941Z,98751.45
2023-03-10T05:00:03.866Z,98750.18
2023-03-10T05:01:04.695Z,98749.95
2023-03-10T05:02:05.553Z,98748.95
2023-03-10T05:03:06.076Z,98748.42
2023-03-10T05:04:06.865Z,98748.36
2023-03-10T05:05:07.370Z,98747.77
2023-03-10T05:06:08.268Z,98747.33
2023-03-10T05:07:09.043Z,98747.16
2023-03-10T05:08:09.658Z,98746.31
2023-03-10T05:09:10.456Z,98745.98
2023-03-10T05:10:11.194Z,98744.55
2023-03-10T05:11:11.805Z,98743.20
2023-03-10T05:12:12.474Z,98741.78
2023-03-10T05:13:13.106Z,98740.08
2023-03-10T05:14:13.704Z,98739.33
2023-03-10T05:15:13.788Z,98738.03
2023-03-10T05:16:14.669Z,98736.76
2023-03-10T05:17:15.302Z,98736.23
2023-03-10T05:18:15.948Z,98736.09
2023-03-10T05:19:16.538Z,98734.64
2023-03-10T05:20:17.100Z,98733.45
2023-03-10T05:21:17.658Z,98732.86
2023-03-10T05:22:18.388Z,98732.66
2023-03-10T05:23:19.258Z,98731.59
2023-03-10T05:24:20.202Z,98730.85
2023-03-10T05:25:21.041Z,98729.92
2023-03-10T05:26:21.587Z,98729.16
2023-03-10T05:27:22.438Z,98728.55
2023-03-10T05:28:22.798Z,98727.45
2023-03-10T05:29:23.777Z,98726.67
2023-03-10T05:30:24.200Z,98725.23
2023-03-10T05:30:32.940Z,98723.20
2023-03-10T05:31:33.466Z,98711.07
2023-03-10T05:32:34.255Z,98710.69
2023-03-10T05:33:34.950Z,98710.69
2023-03-10T05:34:35.543Z,98709.87
2023-03-10T05:35:35.655Z,98710.12
2023-03-10T05:36:36.566Z,98709.78
2023-03-10T05:37:37.134Z,98710.43
2023-03-10T05:38:37.956Z,98710.58
2023-03-10T05:39:38.629Z,98710.66
2023-03-10T05:40:39.103Z,98711.23
2023-03-10T05:41:39.977Z,98711.72
2023-03-10T05:42:40.554Z,98711.91
2023-03-10T05:43:41.219Z,98712.34
2023-03-10T05:44:42.154Z,98712.68
2023-03-10T05:45:42.849Z,98713.09
2023-03-10T05:46:43.554Z,98713.43
2023-03-10T05:47:44.074Z,98714.00
2023-03-10T05:48:44.687Z,98714.97
2023-03-10T05:49:45.624Z,98715.28
2023-03-10T05:50:45.696Z,98715.23
2023-03-10T05:51:46.255Z,98715.66
2023-03-10T05:52:47.183Z,98715.34
2023-03-10T05:53:48.010Z,98714.72
2023-03-10T05:54:48.543Z,98714.66
2023-03-10T05:55:49.141Z,98714.23
2023-03-10T05:56:49.677Z,98713.80
2023-03-10T05:57:50.301Z,98713.50
2023-03-10T05:58:50.823Z,98713.08
2023-03-10T05:59:51.539Z,98713.14
2023-03-10T06:00:52.208Z,98712.98
2023-03-10T06:01:52.425Z,98713.14
2023-03-10T06:02:53.417Z,98712.23
2023-03-10T06:03:53.913Z,98712.39
2023-03-10T06:04:02.687Z,98724.86
2023-03-10T06:05:03.745Z,98717.03
2023-03-10T06:06:04.468Z,98716.84
2023-03-10T06:07:04.965Z,98716.95
2023-03-10T06:08:05.788Z,98716.77
2023-03-10T06:09:06.372Z,98716.59
2023-03-10T06:10:07.023Z,98717.05
2023-03-10T06:11:07.699Z,98717.12
2023-03-10T06:12:08.346Z,98716.95
2023-03-10T06:13:08.402Z,98717.20
2023-03-10T06:14:08.453Z,98717.48
2023-03-10T06:15:09.136Z,98717.05
2023-03-10T06:16:09.902Z,98717.16
2023-03-10T06:17:10.458Z,98717.64
2023-03-10T06:18:11.138Z,98717.76
2023-03-10T06:19:11.693Z,98717.83
2023-03-10T06:20:12.443Z,98717.91
2023-03-10T06:21:13.050Z,98718.48
2023-03-10T06:22:13.634Z,98718.48
2023-03-10T06:23:14.382Z,98718.66
2023-03-10T06:24:15.317Z,98719.20
2023-03-10T06:25:16.090Z,98718.94
2023-03-10T06:26:16.571Z,98719.02
2023-03-10T06:27:17.289Z,98719.56
2023-03-10T06:28:17.358Z,98720.06
2023-03-10T06:29:17.651Z,98720.64
2023-03-10T06:30:18.227Z,98721.56
2023-03-10T06:31:19.086Z,98721.90
2023-03-10T06:32:19.901Z,98722.64
2023-03-10T06:33:20.088Z,98723.32
2023-03-10T06:34:20.791Z,98724.33
2023-03-10T06:35:21.292Z,98725.34
2023-03-10T06:35:30.580Z,98755.06
2023-03-10T06:36:31.285Z,98744.53
2023-03-10T06:37:31.818Z,98744.16
2023-03-10T06:38:32.449Z,98744.32
2023-03-10T06:39:32.464Z,98743.91
2023-03-10T06:40:33.190Z,98743.33
2023-03-10T06:41:33.698Z,98743.09
2023-03-10T06:42:34.383Z,98743.42
2023-03-10T06:43:35.069Z,98742.75
2023-03-10T06:44:35.567Z,98741.91
2023-03-10T06:45:36.242Z,98741.58
2023-03-10T06:46:36.840Z,98741.41
2023-03-10T06:47:36.994Z,98741.23
2023-03-10T06:48:37.463Z,98740.45
2023-03-10T06:49:38.110Z,98740.80
2023-03-10T06:50:38.854Z,98740.78
2023-03-10T06:51:39.421Z,98740.66
2023-03-10T06:52:40.178Z,98740.59
2023-03-10T06:54:48.414Z,98753.16
2023-03-10T06:55:57.254Z,98743.45
2023-03-10T06:56:49.680Z,98743.41
2023-03-10T06:57:53.807Z,98742.82
2023-03-10T06:58:50.397Z,98742.75
2023-03-10T06:59:51.158Z,98742.47
2023-03-10T07:00:51.887Z,98742.73
2023-03-10T07:01:52.439Z,98742.66
2023-03-10T07:02:53.407Z,98742.20
2023-03-10T07:03:53.882Z,98742.54
2023-03-10T07:04:54.883Z,98742.64
2023-03-10T07:05:55.427Z,98742.71
2023-03-10T07:06:55.993Z,98742.73
2023-03-10T07:07:56.862Z,98742.17
2023-03-10T07:08:57.689Z,98741.48
2023-03-10T07:09:57.776Z,98741.06
2023-03-10T07:10:58.592Z,98740.08
2023-03-10T07:11:59.339Z,98738.98
2023-03-10T07:13:00.098Z,98738.41
2023-03-10T07:14:00.800Z,98737.75
2023-03-10T07:15:01.552Z,98736.50
2023-03-10T07:16:02.241Z,98735.67
2023-03-10T07:17:03.021Z,98735.09
2023-03-10T07:18:03.740Z,98735.19
2023-03-10T07:19:04.399Z,98733.69
2023-03-10T07:20:04.606Z,98732.19
2023-03-10T07:21:05.239Z,98731.69
2023-03-10T07:22:05.958Z,98731.03
2023-03-10T07:23:06.769Z,98730.78
2023-03-10T07:24:07.624Z,98730.30
2023-03-10T07:25:08.329Z,98730.02
2023-03-10T07:26:08.453Z,98729.70
2023-03-10T07:27:09.105Z,98729.20
2023-03-10T07:28:09.773Z,98728.72
2023-03-10T07:28:18.927Z,98738.91
2023-03-10T07:29:18.734Z,98720.28
2023-03-10T07:30:19.575Z,98719.53
2023-03-10T07:31:19.752Z,98719.50
2023-03-10T07:32:20.470Z,98719.77
2023-03-10T07:33:21.098Z,98719.18
2023-03-10T07:34:21.975Z,98719.06
2023-03-10T07:35:22.764Z,98719.26
2023-03-10T07:36:23.687Z,98719.22
2023-03-10T07:37:24.549Z,98718.80
2023-03-10T07:38:24.841Z,98719.14
2023-03-10T07:39:25.619Z,98719.41
2023-03-10T07:40:26.220Z,98719.67
2023-03-10T07:41:26.678Z,98720.08
2023-03-10T07:42:26.999Z,98720.83
2023-03-10T07:43:26.828Z,98721.41
2023-03-10T07:44:26.911Z,98721.78
2023-03-10T07:45:27.725Z,98722.65
2023-03-10T07:46:28.463Z,98723.13
2023-03-10T07:47:29.158Z,98724.33
2023-03-10T07:48:29.861Z,98725.78
2023-03-10T07:49:30.177Z,98726.27
2023-03-10T07:50:31.819Z,98727.67
2023-03-10T07:51:31.443Z,98729.02
2023-03-10T07:52:31.573Z,98730.13
2023-03-10T07:53:32.205Z,98731.49
2023-03-10T07:54:32.741Z,98732.53
2023-03-10T07:55:33.268Z,98733.36
2023-03-10T07:56:34.265Z,98735.05
2023-03-10T07:57:35.032Z,98736.20
2023-03-10T07:58:35.848Z,98736.45
2023-03-10T07:59:36.778Z,98737.80
2023-03-10T07:59:46.050Z,98775.60
2023-03-10T08:00:46.060Z,98761.58
2023-03-10T08:01:46.798Z,98761.17
2023-03-10T08:02:47.678Z,98761.05
2023-03-10T08:03:48.549Z,98760.88
2023-03-10T08:04:48.473Z,98761.05
2023-03-10T08:05:48.440Z,98761.56
2023-03-10T08:06:49.119Z,98761.89
2023-03-10T08:07:49.522Z,98762.14
2023-03-10T08:08:50.125Z,98762.58
2023-03-10T08:09:50.778Z,98762.59
2023-03-10T08:10:50.967Z,98763.27
2023-03-10T08:11:51.771Z,98764.00
2023-03-10T08:12:51.798Z,98764.89
2023-03-10T08:13:52.663Z,98765.59
2023-03-10T08:14:52.620Z,98766.49
2023-03-10T08:15:53.448Z,98766.75
2023-03-10T08:16:53.966Z,98767.53
2023-03-10T08:17:54.812Z,98767.95
2023-03-10T08:18:55.636Z,98768.35
2023-03-10T08:19:56.170Z,98768.94
2023-03-10T08:20:56.722Z,98769.84
2023-03-10T08:21:56.931Z,98769.99
2023-03-10T08:22:57.887Z,98770.31
2023-03-10T08:23:58.442Z,98770.29
2023-03-10T08:24:59.254Z,98770.88
2023-03-10T08:26:00.212Z,98770.70
2023-03-10T08:27:00.894Z,98771.27
2023-03-10T08:28:00.997Z,98770.93
2023-03-10T08:29:01.779Z,98771.25
2023-03-10T08:30:02.483Z,98771.27
2023-03-10T08:31:05.221Z,98770.58
2023-03-10T08:31:11.568Z,98774.75
2023-03-10T08:32:12.109Z,98765.31
2023-03-10T08:33:12.741Z,98764.97
2023-03-10T08:34:12.947Z,98765.48
2023-03-10T08:35:13.040Z,98765.70
2023-03-10T08:36:13.236Z,98766.31
2023-03-10T08:37:13.218Z,98766.51
2023-03-10T08:38:13.514Z,98766.27
2023-03-10T08:39:14.472Z,98766.36
2023-03-10T08:40:15.394Z,98766.78
2023-03-10T08:41:15.527Z,98766.72
2023-03-10T08:42:16.211Z,98766.73
2023-03-10T08:43:16.875Z,98766.66
2023-03-10T08:44:17.505Z,98766.13
2023-03-10T08:45:18.060Z,98766.17
2023-03-10T08:46:19.970Z,98766.26
2023-03-10T08:47:19.613Z,98765.64
2023-03-10T08:48:20.253Z,98765.07
2023-03-10T08:49:21.224Z,98765.63
2023-03-10T08:50:21.774Z,98765.23
2023-03-10T08:51:22.810Z,98764.77
2023-03-10T08:52:23.493Z,98764.63
2023-03-10T08:53:24.099Z,98764.48
2023-03-10T08:54:25.092Z,98764.20
2023-03-10T08:55:25.294Z,98765.03
2023-03-10T08:56:25.933Z,98765.72
2023-03-10T08:57:26.849Z,98765.85
2023-03-10T08:57:36.082Z,98798.96
2023-03-10T08:58:36.196Z,98772.69
2023-03-10T08:59:37.062Z,98772.22
2023-03-10T09:00:37.794Z,98772.44
2023-03-10T09:01:38.490Z,98772.44
2023-03-10T09:02:39.038Z,98773.30
2023-03-10T09:03:39.276Z,98773.02
2023-03-10T09:04:39.851Z,98774.09
2023-03-10T09:05:40.623Z,98775.20
2023-03-10T09:06:41.516Z,98775.95
2023-03-10T09:07:42.308Z,98776.78
2023-03-10T09:08:42.975Z,98777.70
2023-03-10T09:09:43.789Z,98778.27
2023-03-10T09:10:44.520Z,98779.05
2023-03-10T09:11:45.298Z,98779.23
2023-03-10T09:12:46.078Z,98779.14
2023-03-10T09:13:46.990Z,98778.84
2023-03-10T09:14:47.702Z,98778.91
2023-03-10T09:15:48.353Z,98778.48
2023-03-10T09:16:49.342Z,98779.13
2023-03-10T09:17:50.085Z,98779.17
2023-03-10T09:18:50.758Z,98779.58
2023-03-10T09:19:51.509Z,98779.42
2023-03-10T09:20:52.123Z,98779.64
2023-03-10T09:21:52.788Z,98779.60
2023-03-10T09:22:53.142Z,98780.55
2023-03-10T09:23:53.348Z,98780.78
2023-03-10T09:24:53.976Z,98781.35
2023-03-10T09:25:54.574Z,98781.42
2023-03-10T09:26:54.833Z,98781.76
2023-03-10T09:27:55.126Z,98781.83
2023-03-10T09:28:57.080Z,98781.14
2023-03-10T09:29:04.582Z,98801.94
2023-03-10T09:30:05.373Z,98785.41
2023-03-10T09:31:06.055Z,98784.64
2023-03-10T09:32:08.628Z,98784.42
2023-03-10T09:33:07.635Z,98785.14
2023-03-10T09:34:08.032Z,98785.03
2023-03-10T09:35:08.787Z,98785.20
2023-03-10T09:36:09.425Z,98785.38
2023-03-10T09:37:10.199Z,98786.49
2023-03-10T09:38:10.947Z,98786.24
2023-03-10T09:39:11.627Z,98787.02
2023-03-10T09:40:12.310Z,98787.48
2023-03-10T09:41:13.039Z,98787.67
2023-03-10T09:42:14.831Z,98788.37
2023-03-10T09:43:14.312Z,98789.36
2023-03-10T09:44:14.961Z,98789.95
2023-03-10T09:45:15.734Z,98790.60
2023-03-10T09:46:16.700Z,98791.88
2023-03-10T09:47:19.658Z,98792.58
2023-03-10T09:48:17.446Z,98794.13
2023-03-10T09:49:18.208Z,98795.42
2023-03-10T09:50:19.169Z,98797.06
2023-03-10T09:51:19.870Z,98798.50
2023-03-10T09:52:20.161Z,98799.61
2023-03-10T09:53:20.183Z,98801.03
2023-03-10T09:54:21.012Z,98802.23
2023-03-10T09:55:21.870Z,98803.16
2023-03-10T09:56:22.123Z,98804.28
2023-03-10T09:57:22.861Z,98805.38
2023-03-10T09:58:23.078Z,98806.06
2023-03-10T09:59:23.264Z,98806.81
2023-03-10T09:59:32.024Z,98838.30
2023-03-10T10:00:32.553Z,98823.16
2023-03-10T10:01:33.473Z,98822.72
2023-03-10T10:02:33.815Z,98822.61
2023-03-10T10:03:42.947Z,98822.87
2023-03-10T10:04:35.299Z,98822.91
2023-03-10T10:05:35.765Z,98823.14
2023-03-10T10:06:36.557Z,98823.89
2023-03-10T10:07:37.418Z,98823.89
2023-03-10T10:08:38.277Z,98824.19
2023-03-10T10:09:38.901Z,98824.65
2023-03-10T10:10:39.033Z,98825.14
2023-03-10T10:11:39.973Z,98825.65
2023-03-10T10:12:40.193Z,98826.02
2023-03-10T10:13:43.113Z,98826.00
2023-03-10T10:14:48.159Z,98826.59
2023-03-10T10:15:42.776Z,98826.77
2023-03-10T10:16:46.037Z,98826.66
2023-03-10T10:17:52.724Z,98827.63
2023-03-10T10:18:44.198Z,98828.05
2023-03-10T10:19:44.108Z,98828.98
2023-03-10T10:20:44.960Z,98828.78
2023-03-10T10:21:45.902Z,98828.53
2023-03-10T10:22:45.928Z,98828.30
2023-03-10T10:23:46.536Z,98828.30
2023-03-10T10:24:47.391Z,98828.13
2023-03-10T10:25:50.301Z,98828.50
2023-03-10T10:26:48.636Z,98828.25
2023-03-10T10:27:48.603Z,98828.54
2023-03-10T10:28:51.053Z,98829.08
2023-03-10T10:29:50.051Z,98829.11
2023-03-10T10:30:50.752Z,98829.09
2023-03-10T10:31:51.593Z,98829.05
2023-03-10T10:32:52.436Z,98829.66
2023-03-10T10:33:53.090Z,98830.91
2023-03-10T10:34:01.830Z,98848.84
2023-03-10T10:35:02.439Z,98833.03
2023-03-10T10:36:03.448Z,98833.59
2023-03-10T10:37:03.882Z,98834.75
2023-03-10T10:38:03.889Z,98835.75
2023-03-10T10:39:04.650Z,98837.11
2023-03-10T10:40:06.182Z,98837.92
2023-03-10T10:41:07.721Z,98839.03
2023-03-10T10:42:07.083Z,98840.06
2023-03-10T10:43:07.775Z,98841.19
2023-03-10T10:44:08.587Z,98842.44
2023-03-10T10:45:09.169Z,98843.87
2023-03-10T10:46:09.302Z,98844.98
2023-03-10T10:47:09.839Z,98845.88
2023-03-10T10:48:09.882Z,98846.96
2023-03-10T10:49:10.564Z,98847.05
2023-03-10T10:50:10.949Z,98848.12
2023-03-10T10:51:11.283Z,98848.47
2023-03-10T10:52:12.092Z,98849.06
2023-03-10T10:53:12.405Z,98850.25
2023-03-10T10:54:13.069Z,98850.70
2023-03-10T10:55:13.770Z,98852.02
2023-03-10T10:56:14.709Z,98852.95
2023-03-10T10:57:15.462Z,98853.34
2023-03-10T10:58:16.175Z,98854.42
2023-03-10T10:59:16.750Z,98854.94
2023-03-10T11:00:16.797Z,98855.41
2023-03-10T11:01:17.069Z,98855.84
2023-03-10T11:02:17.833Z,98856.36
2023-03-10T11:03:18.457Z,98856.13
2023-03-10T11:04:19.421Z,98855.88
2023-03-10T11:05:20.344Z,98855.92
2023-03-10T11:06:21.232Z,98855.92
2023-03-10T11:07:22.170Z,98855.39
2023-03-10T11:08:23.033Z,98855.03
2023-03-10T11:08:31.720Z,98869.22
2023-03-10T11:09:32.501Z,98844.83
2023-03-10T11:10:32.592Z,98844.42
2023-03-10T11:11:33.234Z,98844.86
2023-03-10T11:12:33.916Z,98844.76
2023-03-10T11:13:34.790Z,98844.23
2023-03-10T11:14:35.452Z,98844.09
2023-03-10T11:15:36.209Z,98843.23
2023-03-10T11:16:36.954Z,98842.23
2023-03-10T11:17:37.500Z,98841.39
2023-03-10T11:18:37.637Z,98840.98
2023-03-10T11:19:38.166Z,98840.13
2023-03-10T11:20:38.997Z,98838.95
2023-03-10T11:21:39.788Z,98838.58
2023-03-10T11:22:40.406Z,98838.52
2023-03-10T11:23:41.248Z,98838.08
2023-03-10T11:24:42.034Z,98837.30
2023-03-10T11:25:42.689Z,98836.58
2023-03-10T11:26:43.380Z,98835.66
2023-03-10T11:27:43.917Z,98835.41
2023-03-10T11:28:44.751Z,98834.88
2023-03-10T11:29:49.066Z,98834.59
2023-03-10T11:30:46.273Z,98834.41
2023-03-10T11:31:46.949Z,98833.75
2023-03-10T11:32:47.706Z,98833.38
2023-03-10T11:33:48.458Z,98832.58
2023-03-10T11:34:49.293Z,98831.39
2023-03-10T11:35:49.997Z,98830.61
2023-03-10T11:36:56.336Z,98829.25
2023-03-10T11:37:50.826Z,98827.91
2023-03-10T11:38:50.939Z,98827.14
2023-03-10T11:39:51.626Z,98825.55
2023-03-10T11:40:52.529Z,98823.97
2023-03-10T11:41:53.313Z,98822.62
2023-03-10T11:42:02.073Z,98823.52
2023-03-10T11:43:02.740Z,98805.09
2023-03-10T11:44:03.342Z,98805.23
2023-03-10T11:45:03.863Z,98805.75
2023-03-10T11:46:04.839Z,98806.61
2023-03-10T11:47:06.688Z,98805.92
2023-03-10T11:48:05.851Z,98806.47
2023-03-10T11:49:06.673Z,98806.45
2023-03-10T11:50:07.127Z,98806.70
2023-03-10T11:51:07.443Z,98806.72
2023-03-10T11:52:07.478Z,98806.80
2023-03-10T11:53:08.151Z,98806.09
2023-03-10T11:54:08.188Z,98806.31
2023-03-10T11:55:08.491Z,98806.59
2023-03-10T11:56:09.270Z,98805.91
2023-03-10T11:57:09.364Z,98805.73
2023-03-10T11:58:10.029Z,98805.43
2023-03-10T11:59:10.812Z,98805.36
2023-03-10T12:00:11.349Z,98805.06
2023-03-10T12:01:11.888Z,98805.16
2023-03-10T12:02:12.177Z,98804.61
2023-03-10T12:03:12.240Z,98804.50
2023-03-10T12:04:12.937Z,98803.97
2023-03-10T12:05:13.996Z,98803.79
2023-03-10T12:06:14.170Z,98804.06
2023-03-10T12:07:14.968Z,98802.53
2023-03-10T12:08:15.742Z,98801.73
2023-03-10T12:09:16.768Z,98800.59
2023-03-10T12:10:17.516Z,98800.41
2023-03-10T12:11:18.304Z,98799.61
2023-03-10T12:12:18.853Z,98798.95
2023-03-10T12:12:27.694Z,98805.42
2023-03-10T12:13:27.973Z,98792.52
2023-03-10T12:14:28.874Z,98792.39
2023-03-10T12:15:29.577Z,98791.38
2023-03-10T12:16:30.441Z,98790.84
2023-03-10T12:17:31.366Z,98790.75
2023-03-10T12:18:32.314Z,98790.63
2023-03-10T12:19:32.449Z,98790.07
2023-03-10T12:20:33.393Z,98788.89
2023-03-10T12:21:33.733Z,98788.23
2023-03-10T12:22:34.532Z,98787.84
2023-03-10T12:23:34.707Z,98786.90
2023-03-10T12:24:35.493Z,98786.24
2023-03-10T12:25:36.294Z,98784.55
2023-03-10T12:26:37.192Z,98784.17
2023-03-10T12:27:37.973Z,98783.16
2023-03-10T12:28:38.898Z,98781.97
2023-03-10T12:29:39.836Z,98780.64
2023-03-10T12:30:40.651Z,98779.55
2023-03-10T12:31:41.609Z,98778.80
2023-03-10T12:32:41.796Z,98778.20